createdAt,value
2019-03-20T00:00:13.998Z,9.57
2019-03-20T00:02:42.606Z,8.73
2019-03-20T00:05:11.318Z,9.00
2019-03-20T00:07:39.839Z,9.97
2019-03-20T00:10:10.560Z,8.30
2019-03-20T00:12:39.488Z,8.47
2019-03-20T00:15:13.194Z,9.40
2019-03-20T00:17:41.819Z,8.37
2019-03-20T00:23:38.710Z,9.90
2019-03-20T00:26:07.394Z,9.67
2019-03-20T00:28:36.092Z,9.80
2019-03-20T00:31:04.659Z,8.67
2019-03-20T00:33:33.270Z,9.30
2019-03-20T00:36:01.928Z,9.63
2019-03-20T00:38:30.539Z,8.97
2019-03-20T00:40:59.087Z,9.10
2019-03-20T00:46:55.810Z,8.53
2019-03-20T00:49:24.355Z,7.80
2019-03-20T00:51:52.887Z,7.70
2019-03-20T00:54:21.488Z,7.40
2019-03-20T00:56:50.187Z,7.90
2019-03-20T00:59:18.821Z,6.97
2019-03-20T01:01:47.414Z,6.97
2019-03-20T01:04:16.106Z,7.50
2019-03-20T01:06:44.651Z,7.80
2019-03-20T01:09:13.253Z,6.70
2019-03-20T01:11:41.775Z,6.70
2019-03-20T01:14:10.345Z,6.13
2019-03-20T01:16:38.942Z,5.57
2019-03-20T01:19:07.492Z,5.93
2019-03-20T01:25:08.141Z,5.67
2019-03-20T01:27:36.716Z,5.53
2019-03-20T01:30:32.261Z,5.73
2019-03-20T01:33:02.283Z,5.33
2019-03-20T01:35:30.960Z,5.30
2019-03-20T01:37:59.554Z,5.77
2019-03-20T01:40:29.416Z,5.90
2019-03-20T01:42:58.333Z,5.37
2019-03-20T01:45:27.066Z,4.83
2019-03-20T01:47:56.450Z,5.80
2019-03-20T01:50:25.232Z,4.63
2019-03-20T01:56:34.663Z,4.93
2019-03-20T01:59:03.417Z,5.07
2019-03-20T02:01:32.199Z,4.73
2019-03-20T02:04:00.871Z,4.97
2019-03-20T02:06:29.535Z,5.13
2019-03-20T02:08:58.262Z,5.23
2019-03-20T02:11:26.935Z,4.63
2019-03-20T02:13:55.603Z,4.87
2019-03-20T02:16:24.218Z,4.50
2019-03-20T02:18:52.826Z,5.13
2019-03-20T02:21:21.357Z,5.13
2019-03-20T02:23:50.090Z,6.13
2019-03-20T02:26:18.668Z,4.70
2019-03-20T02:28:47.182Z,5.97
2019-03-20T02:31:17.477Z,5.23
2019-03-20T02:33:46.025Z,4.90
2019-03-20T02:36:14.643Z,5.87
2019-03-20T02:38:43.263Z,5.77
2019-03-20T02:41:11.906Z,5.10
2019-03-20T02:43:40.504Z,5.53
2019-03-20T02:46:10.556Z,5.10
2019-03-20T02:48:39.101Z,4.73
2019-03-20T02:51:07.704Z,5.70
2019-03-20T02:53:36.356Z,5.87
2019-03-20T02:56:05.012Z,5.00
2019-03-20T02:58:33.722Z,5.07
2019-03-20T03:01:02.331Z,5.07
2019-03-20T03:03:30.993Z,4.70
2019-03-20T03:06:06.695Z,4.40
2019-03-20T03:08:30.207Z,5.03
2019-03-20T03:10:58.816Z,5.67
2019-03-20T03:17:08.383Z,4.50
2019-03-20T03:19:37.231Z,4.90
2019-03-20T03:22:05.810Z,4.90
2019-03-20T03:24:34.367Z,4.20
2019-03-20T03:27:03.138Z,4.93
2019-03-20T03:29:31.722Z,5.00
2019-03-20T03:32:00.274Z,4.67
2019-03-20T03:34:29.165Z,4.70
2019-03-20T03:36:59.533Z,4.67
2019-03-20T03:39:34.199Z,6.00
2019-03-20T03:42:02.818Z,5.77
2019-03-20T03:44:31.321Z,5.20
2019-03-20T03:46:59.910Z,5.40
2019-03-20T03:49:28.456Z,5.53
2019-03-20T03:51:56.986Z,5.57
2019-03-20T03:57:54.697Z,5.10
2019-03-20T04:00:23.354Z,5.80
2019-03-20T04:02:51.890Z,5.93
2019-03-20T04:05:20.471Z,5.57
2019-03-20T04:07:49.059Z,5.70
2019-03-20T04:10:18.411Z,5.67
2019-03-20T04:12:47.184Z,6.33
2019-03-20T04:15:16.814Z,6.50
2019-03-20T04:17:45.562Z,5.97
2019-03-20T04:20:19.401Z,5.77
2019-03-20T04:22:48.194Z,6.07
2019-03-20T04:28:20.773Z,6.07
2019-03-20T04:30:49.396Z,6.43
2019-03-20T04:33:17.994Z,5.93
2019-03-20T04:35:46.581Z,6.93
2019-03-20T04:38:15.048Z,5.97
2019-03-20T04:40:43.954Z,6.57
2019-03-20T04:43:12.496Z,6.67
2019-03-20T04:45:41.465Z,6.87
2019-03-20T04:48:10.044Z,7.13
2019-03-20T04:50:38.560Z,7.10
2019-03-20T04:53:07.068Z,7.10
2019-03-20T04:59:03.622Z,7.33
2019-03-20T05:01:32.217Z,7.70
2019-03-20T05:04:00.789Z,7.87
2019-03-20T05:06:29.325Z,7.70
2019-03-20T05:08:57.844Z,8.03
2019-03-20T05:11:26.403Z,8.50
2019-03-20T05:13:54.894Z,8.70
2019-03-20T05:16:23.446Z,10.53
2019-03-20T05:18:51.969Z,9.80
2019-03-20T05:21:20.485Z,9.57
2019-03-20T05:23:48.994Z,10.80
2019-03-20T05:26:17.527Z,12.10
2019-03-20T05:28:46.080Z,10.87
2019-03-20T05:31:14.765Z,11.10
2019-03-20T05:36:47.417Z,11.43
2019-03-20T05:39:16.040Z,11.43
2019-03-20T05:41:44.637Z,12.40
2019-03-20T05:47:41.189Z,13.47
2019-03-20T05:50:12.250Z,13.67
2019-03-20T05:52:40.876Z,12.53
2019-03-20T05:58:38.752Z,14.77
2019-03-20T06:01:07.336Z,15.67
2019-03-20T06:03:35.847Z,14.73
2019-03-20T06:09:45.655Z,16.37
2019-03-20T06:12:14.156Z,17.07
2019-03-20T06:14:42.631Z,17.93
2019-03-20T06:17:11.148Z,18.27
2019-03-20T06:19:40.002Z,18.03
2019-03-20T06:22:08.558Z,17.73
2019-03-20T06:24:37.085Z,19.27
2019-03-20T06:27:07.522Z,21.67
2019-03-20T06:29:35.803Z,20.60
2019-03-20T06:35:33.181Z,22.10
2019-03-20T06:38:01.740Z,23.23
2019-03-20T06:40:30.281Z,23.63
2019-03-20T06:46:27.321Z,23.93
2019-03-20T06:52:24.358Z,26.50
2019-03-20T06:54:52.828Z,26.40
2019-03-20T06:57:22.841Z,27.20
2019-03-20T06:59:54.450Z,24.57
2019-03-20T07:02:23.565Z,25.83
2019-03-20T07:04:55.197Z,26.33
2019-03-20T07:11:08.195Z,26.70
2019-03-20T07:13:36.846Z,25.23
2019-03-20T07:16:05.877Z,26.03
2019-03-20T07:18:34.590Z,29.40
2019-03-20T07:21:03.278Z,26.37
2019-03-20T07:23:31.830Z,28.33
2019-03-20T07:26:01.991Z,27.87
2019-03-20T07:28:30.558Z,28.00
2019-03-20T07:34:27.313Z,27.17
2019-03-20T07:36:56.518Z,27.53
2019-03-20T07:39:25.043Z,26.80
2019-03-20T07:41:53.629Z,27.53
2019-03-20T07:44:22.126Z,29.10
2019-03-20T07:46:50.605Z,27.43
2019-03-20T07:49:19.835Z,28.53
2019-03-20T07:51:50.285Z,28.17
2019-03-20T07:54:18.820Z,28.83
2019-03-20T07:56:47.352Z,28.77
2019-03-20T07:59:15.837Z,27.90
2019-03-20T08:01:44.341Z,29.77
2019-03-20T08:04:12.919Z,31.10
2019-03-20T08:06:41.453Z,29.43
2019-03-20T08:09:09.937Z,30.73
2019-03-20T08:11:38.423Z,28.00
2019-03-20T08:14:06.963Z,27.83
2019-03-20T08:16:37.187Z,28.07
2019-03-20T08:19:05.741Z,28.20
2019-03-20T08:21:34.260Z,26.33
2019-03-20T08:27:31.916Z,28.00
2019-03-20T08:33:42.102Z,27.63
2019-03-20T08:36:10.609Z,28.57
2019-03-20T08:38:39.104Z,26.77
2019-03-20T08:41:07.565Z,26.33
2019-03-20T08:43:36.092Z,27.63
2019-03-20T08:46:04.713Z,28.00
2019-03-20T08:52:02.114Z,26.73
2019-03-20T08:54:30.597Z,27.10
2019-03-20T08:56:59.138Z,27.50
2019-03-20T08:59:28.427Z,26.80
2019-03-20T09:01:56.918Z,25.90
2019-03-20T09:04:25.403Z,26.07
2019-03-20T09:06:55.438Z,26.53
2019-03-20T09:09:23.903Z,26.10
2019-03-20T09:11:52.502Z,25.93
2019-03-20T09:14:20.986Z,25.67
2019-03-20T09:16:49.963Z,25.07
2019-03-20T09:19:18.548Z,25.73
2019-03-20T09:21:47.083Z,24.97
2019-03-20T09:24:15.607Z,25.17
2019-03-20T09:26:44.071Z,24.83
2019-03-20T09:29:18.663Z,25.00
2019-03-20T09:31:43.065Z,25.83
2019-03-20T09:34:11.573Z,25.33
2019-03-20T09:36:43.311Z,24.90
2019-03-20T09:39:10.364Z,26.57
2019-03-20T09:41:38.927Z,25.03
2019-03-20T09:44:07.386Z,25.03
2019-03-20T09:46:36.626Z,25.30
2019-03-20T09:49:06.739Z,24.57
2019-03-20T09:51:35.222Z,24.20
2019-03-20T09:54:03.748Z,24.73
2019-03-20T09:56:32.243Z,25.17
2019-03-20T09:59:03.476Z,23.57
2019-03-20T10:01:32.035Z,24.30
2019-03-20T10:04:00.514Z,24.87
2019-03-20T10:06:30.259Z,24.93
2019-03-20T10:08:59.001Z,24.90
2019-03-20T10:11:27.506Z,24.40
2019-03-20T10:13:56.000Z,24.23
2019-03-20T10:16:24.478Z,25.47
2019-03-20T10:22:08.560Z,25.63
2019-03-20T10:24:37.102Z,24.50
2019-03-20T10:27:05.581Z,26.03
2019-03-20T10:29:34.064Z,25.30
2019-03-20T10:32:02.539Z,27.00
2019-03-20T10:34:39.172Z,26.67
2019-03-20T10:37:01.382Z,25.17
2019-03-20T10:39:29.832Z,26.03
2019-03-20T10:41:58.296Z,27.47
2019-03-20T10:44:26.797Z,27.30
2019-03-20T10:46:55.264Z,26.87
2019-03-20T10:49:23.757Z,28.40
2019-03-20T10:51:53.304Z,28.07
2019-03-20T10:54:21.831Z,27.00
2019-03-20T10:56:50.302Z,29.70
2019-03-20T10:59:18.815Z,28.23
2019-03-20T11:01:47.301Z,29.30
2019-03-20T11:04:15.956Z,27.93
2019-03-20T11:10:26.647Z,28.43
2019-03-20T11:12:56.508Z,28.40
2019-03-20T11:18:29.894Z,28.57
2019-03-20T11:20:58.394Z,29.20
2019-03-20T11:23:27.239Z,28.70
2019-03-20T11:25:55.736Z,30.47
2019-03-20T11:28:24.245Z,29.40
2019-03-20T11:30:52.775Z,29.03
2019-03-20T11:33:21.282Z,29.23
2019-03-20T11:35:49.906Z,33.53
2019-03-20T11:38:18.462Z,32.47
2019-03-20T11:40:48.058Z,29.80
2019-03-20T11:43:17.523Z,29.20
2019-03-20T11:45:46.014Z,30.13
2019-03-20T11:48:14.559Z,30.90
2019-03-20T11:50:44.383Z,31.07
2019-03-20T11:53:12.880Z,30.83
2019-03-20T11:55:44.344Z,30.37
2019-03-20T11:58:13.427Z,30.33
2019-03-20T12:00:41.915Z,30.23
2019-03-20T12:03:10.388Z,30.07
2019-03-20T12:05:39.909Z,30.07
2019-03-20T12:08:09.981Z,29.73
2019-03-20T12:10:38.458Z,29.47
2019-03-20T12:13:08.221Z,30.73
2019-03-20T12:15:36.692Z,31.27
2019-03-20T12:18:05.246Z,30.13
2019-03-20T12:20:33.787Z,30.80
2019-03-20T12:23:02.288Z,31.93
2019-03-20T12:25:37.881Z,33.77
2019-03-20T12:28:06.624Z,31.90
2019-03-20T12:30:38.268Z,31.80
2019-03-20T12:33:06.793Z,34.10
2019-03-20T12:35:37.630Z,33.17
2019-03-20T12:38:14.472Z,34.10
2019-03-20T12:40:37.986Z,33.90
2019-03-20T12:43:06.895Z,33.03
2019-03-20T12:45:39.206Z,36.30
2019-03-20T12:48:09.130Z,34.70
2019-03-20T12:54:06.787Z,36.17
2019-03-20T12:56:35.330Z,36.77
2019-03-20T12:59:03.855Z,36.07
2019-03-20T13:01:32.336Z,36.23
2019-03-20T13:04:01.272Z,35.33
2019-03-20T13:06:31.903Z,36.43
2019-03-20T13:09:00.366Z,33.70
2019-03-20T13:11:28.870Z,35.80
2019-03-20T13:13:57.378Z,34.60
2019-03-20T13:16:27.311Z,34.40
2019-03-20T13:18:56.143Z,35.00
2019-03-20T13:21:24.619Z,34.70
2019-03-20T13:23:53.328Z,33.40
2019-03-20T13:26:21.864Z,33.67
2019-03-20T13:28:50.350Z,33.50
2019-03-20T13:31:21.811Z,33.63
2019-03-20T13:33:50.392Z,35.07
2019-03-20T13:36:18.949Z,34.37
2019-03-20T13:38:47.681Z,35.77
2019-03-20T13:41:16.196Z,34.40
2019-03-20T13:43:46.652Z,35.80
2019-03-20T13:46:14.997Z,39.30
2019-03-20T13:48:43.547Z,36.63
2019-03-20T13:51:12.136Z,37.40
2019-03-20T13:53:40.768Z,37.63
2019-03-20T13:56:09.279Z,37.93
2019-03-20T13:58:38.437Z,37.70
2019-03-20T14:01:07.058Z,36.83
2019-03-20T14:03:35.809Z,36.50
2019-03-20T14:06:04.442Z,37.93
2019-03-20T14:12:02.752Z,37.30
2019-03-20T14:14:31.349Z,39.30
2019-03-20T14:16:59.831Z,39.50
2019-03-20T14:19:28.351Z,40.00
2019-03-20T14:21:56.851Z,40.00
2019-03-20T14:24:25.379Z,41.60
2019-03-20T14:26:55.566Z,42.17
2019-03-20T14:29:24.130Z,41.97
2019-03-20T14:31:52.711Z,41.50
2019-03-20T14:38:02.038Z,42.80
2019-03-20T14:40:36.585Z,41.77
2019-03-20T14:43:05.720Z,42.80
2019-03-20T14:45:34.372Z,44.70
2019-03-20T14:48:02.913Z,42.80
2019-03-20T14:50:32.548Z,45.47
2019-03-20T14:53:01.026Z,45.70
2019-03-20T14:55:29.770Z,45.17
2019-03-20T14:57:58.241Z,42.70
2019-03-20T15:00:31.521Z,43.73
2019-03-20T15:03:00.579Z,44.73
2019-03-20T15:05:29.069Z,42.40
2019-03-20T15:07:57.576Z,46.63
2019-03-20T15:10:28.414Z,46.60
2019-03-20T15:12:57.150Z,44.67
2019-03-20T15:15:40.509Z,45.83
2019-03-20T15:18:10.644Z,46.40
2019-03-20T15:20:39.263Z,45.67
2019-03-20T15:23:07.859Z,46.77
2019-03-20T15:25:36.498Z,45.70
2019-03-20T15:28:04.975Z,46.37
2019-03-20T15:30:33.570Z,45.30
2019-03-20T15:33:02.176Z,46.97
2019-03-20T15:35:32.026Z,46.40
2019-03-20T15:38:01.253Z,43.53
2019-03-20T15:44:02.385Z,43.83
2019-03-20T15:46:32.223Z,45.23
2019-03-20T15:49:01.000Z,43.73
2019-03-20T15:54:58.922Z,43.73
2019-03-20T15:57:27.432Z,43.13
2019-03-20T15:59:56.154Z,42.67
2019-03-20T16:02:24.634Z,41.73
2019-03-20T16:04:53.132Z,41.53
2019-03-20T16:07:21.648Z,41.63
2019-03-20T16:09:50.178Z,41.33
2019-03-20T16:12:22.500Z,40.60
2019-03-20T16:14:50.774Z,41.57
2019-03-20T16:17:19.276Z,41.53
2019-03-20T16:19:47.772Z,41.83
2019-03-20T16:22:16.277Z,42.07
2019-03-20T16:24:44.800Z,41.37
2019-03-20T16:27:13.328Z,42.63
2019-03-20T16:29:41.854Z,43.73
2019-03-20T16:32:10.324Z,42.60
2019-03-20T16:34:38.875Z,44.20
2019-03-20T16:37:07.360Z,42.73
2019-03-20T16:39:35.864Z,43.50
2019-03-20T16:42:04.413Z,44.00
2019-03-20T16:44:32.990Z,44.93
2019-03-20T16:50:30.849Z,45.03
2019-03-20T16:52:59.351Z,44.03
2019-03-20T16:55:27.813Z,47.30
2019-03-20T16:57:58.187Z,47.50
2019-03-20T17:00:29.907Z,47.23
2019-03-20T17:02:58.450Z,49.77
2019-03-20T17:05:28.003Z,50.53
2019-03-20T17:11:01.355Z,53.60
2019-03-20T17:13:29.846Z,57.13
2019-03-20T17:15:58.945Z,58.87
2019-03-20T17:22:08.205Z,61.40
2019-03-20T17:24:36.687Z,65.77
2019-03-20T17:27:05.268Z,63.73
2019-03-20T17:29:34.191Z,65.83
2019-03-20T17:32:03.082Z,63.53
2019-03-20T17:34:31.572Z,64.40
2019-03-20T17:37:08.803Z,65.70
2019-03-20T17:39:37.373Z,65.67
2019-03-20T17:42:05.902Z,64.67
2019-03-20T17:44:34.411Z,64.60
2019-03-20T17:47:02.983Z,65.77
2019-03-20T17:49:33.154Z,60.73
2019-03-20T17:52:03.111Z,60.03
2019-03-20T17:54:31.591Z,64.53
2019-03-20T18:00:34.200Z,66.73
2019-03-20T18:06:31.582Z,62.67
2019-03-20T18:09:00.463Z,59.70
2019-03-20T18:11:29.041Z,55.40
2019-03-20T18:13:59.161Z,58.80
2019-03-20T18:16:27.624Z,57.13
2019-03-20T18:18:56.135Z,58.30
2019-03-20T18:21:24.628Z,56.77
2019-03-20T18:23:56.514Z,58.30
2019-03-20T18:26:25.034Z,57.30
2019-03-20T18:28:53.537Z,57.87
2019-03-20T18:31:22.499Z,57.30
2019-03-20T18:33:50.998Z,56.87
2019-03-20T18:36:19.516Z,56.63
2019-03-20T18:42:16.706Z,54.80
2019-03-20T18:44:45.345Z,55.07
2019-03-20T18:47:13.931Z,56.33
2019-03-20T18:49:49.695Z,52.87
2019-03-20T18:55:49.641Z,55.40
2019-03-20T18:58:18.198Z,55.83
2019-03-20T19:00:46.793Z,52.93
2019-03-20T19:03:21.208Z,57.97
2019-03-20T19:06:11.070Z,55.43
2019-03-20T19:08:39.624Z,52.43
2019-03-20T19:11:10.547Z,54.37
2019-03-20T19:13:43.406Z,55.67
2019-03-20T19:16:12.220Z,53.97
2019-03-20T19:18:40.807Z,55.93
2019-03-20T19:21:09.463Z,52.90
2019-03-20T19:23:37.966Z,55.53
2019-03-20T19:26:07.208Z,53.33
2019-03-20T19:28:35.723Z,51.00
2019-03-20T19:31:05.239Z,53.90
2019-03-20T19:33:33.699Z,52.93
2019-03-20T19:36:02.183Z,53.90
2019-03-20T19:38:34.948Z,53.20
2019-03-20T19:41:00.919Z,51.63
2019-03-20T19:43:29.413Z,51.90
2019-03-20T19:45:58.243Z,53.03
2019-03-20T19:48:29.403Z,53.03
2019-03-20T19:50:57.237Z,54.63
2019-03-20T19:53:25.737Z,54.73
2019-03-20T19:55:54.253Z,53.97
2019-03-20T19:58:22.845Z,53.37
2019-03-20T20:00:51.426Z,53.97
2019-03-20T20:03:19.996Z,54.30
2019-03-20T20:05:48.497Z,55.97
2019-03-20T20:08:17.389Z,52.53
2019-03-20T20:10:46.122Z,54.87
2019-03-20T20:13:14.756Z,55.23
2019-03-20T20:15:43.252Z,55.70
2019-03-20T20:18:11.794Z,56.53
2019-03-20T20:20:40.759Z,55.53
2019-03-20T20:23:09.264Z,57.10
2019-03-20T20:25:38.123Z,56.87
2019-03-20T20:28:06.644Z,57.37
2019-03-20T20:30:35.141Z,58.50
2019-03-20T20:33:03.662Z,56.13
2019-03-20T20:35:32.222Z,58.77
2019-03-20T20:38:00.735Z,58.03
2019-03-20T20:40:32.652Z,60.60
2019-03-20T20:43:01.283Z,58.80
2019-03-20T20:45:29.846Z,59.17
2019-03-20T20:47:58.361Z,59.67
2019-03-20T20:50:27.019Z,59.90
2019-03-20T20:52:55.523Z,59.20
2019-03-20T20:55:24.770Z,61.07
2019-03-20T20:57:53.654Z,58.23
2019-03-20T21:03:50.346Z,56.23
2019-03-20T21:06:18.833Z,56.23
2019-03-20T21:08:47.322Z,59.40
2019-03-20T21:11:15.824Z,57.17
2019-03-20T21:13:44.288Z,55.30
2019-03-20T21:16:12.863Z,56.77
2019-03-20T21:18:52.474Z,56.60
2019-03-20T21:21:21.126Z,56.57
2019-03-20T21:24:23.683Z,57.33
2019-03-20T21:27:07.289Z,56.27
2019-03-20T21:29:58.735Z,55.03
2019-03-20T21:32:47.141Z,53.57
2019-03-20T21:35:38.420Z,55.57
2019-03-20T21:38:09.959Z,53.80
2019-03-20T21:44:22.289Z,53.73
2019-03-20T21:47:05.827Z,53.27
2019-03-20T21:49:34.291Z,52.57
2019-03-20T21:52:04.048Z,51.90
2019-03-20T21:54:37.683Z,52.10
2019-03-20T21:57:28.808Z,50.47
2019-03-20T22:00:12.060Z,52.80
2019-03-20T22:02:45.259Z,50.13
2019-03-20T22:05:23.278Z,51.73
2019-03-20T22:07:50.680Z,52.03
2019-03-20T22:10:27.948Z,52.50
2019-03-20T22:13:19.004Z,53.03
2019-03-20T22:16:02.956Z,49.50
2019-03-20T22:19:06.174Z,53.83
2019-03-20T22:21:43.190Z,54.13
2019-03-20T22:24:32.720Z,55.17
2019-03-20T22:27:22.043Z,53.97
2019-03-20T22:29:50.571Z,54.87
2019-03-20T22:32:30.970Z,54.93
2019-03-20T22:35:19.943Z,54.47
2019-03-20T22:37:48.398Z,55.17
2019-03-20T22:40:20.024Z,55.43
2019-03-20T22:43:09.062Z,55.43
2019-03-20T22:46:03.199Z,53.90
2019-03-20T22:48:55.213Z,54.10
2019-03-20T22:51:56.694Z,54.43
2019-03-20T22:54:31.182Z,54.23
2019-03-20T22:57:14.236Z,54.07
2019-03-20T22:59:42.738Z,53.73
2019-03-20T23:02:17.234Z,51.43
2019-03-20T23:04:49.494Z,54.40
2019-03-20T23:07:18.097Z,53.60
2019-03-20T23:09:46.750Z,53.33
2019-03-20T23:12:17.778Z,54.53
2019-03-20T23:14:47.023Z,52.27
2019-03-20T23:17:15.572Z,51.27
2019-03-20T23:19:45.200Z,51.33
2019-03-20T23:22:13.785Z,53.63
2019-03-20T23:24:42.547Z,52.97
2019-03-20T23:27:14.123Z,52.70
2019-03-20T23:29:42.681Z,53.37
2019-03-20T23:32:11.237Z,52.80
2019-03-20T23:34:39.732Z,55.40
2019-03-20T23:40:37.457Z,53.40
2019-03-20T23:43:12.152Z,56.80
2019-03-20T23:45:40.635Z,55.97
2019-03-20T23:48:21.320Z,56.43
2019-03-20T23:50:52.907Z,56.47
2019-03-20T23:53:23.082Z,58.30
2019-03-20T23:55:51.870Z,58.47
2019-03-20T23:58:20.381Z,60.37
